createdAt,value
2019-03-19T00:02:04.386Z,27.70
2019-03-19T00:05:08.316Z,39.17
2019-03-19T00:08:12.242Z,23.10
2019-03-19T00:11:16.052Z,45.23
2019-03-19T00:14:20.006Z,45.67
2019-03-19T00:17:23.860Z,45.13
2019-03-19T00:20:27.734Z,29.10
2019-03-19T00:23:31.522Z,31.70
2019-03-19T00:26:35.364Z,22.87
2019-03-19T00:29:39.235Z,29.47
2019-03-19T00:32:43.116Z,19.63
2019-03-19T00:35:47.004Z,18.27
2019-03-19T00:38:50.906Z,20.97
2019-03-19T00:41:54.730Z,22.00
2019-03-19T00:44:58.643Z,18.23
2019-03-19T00:48:02.557Z,27.17
2019-03-19T00:51:06.391Z,16.53
2019-03-19T00:54:10.246Z,26.57
2019-03-19T00:57:14.053Z,21.83
2019-03-19T01:00:18.600Z,21.27
2019-03-19T01:03:22.413Z,20.27
2019-03-19T01:06:26.265Z,16.13
2019-03-19T01:09:30.083Z,27.80
2019-03-19T01:12:34.075Z,19.87
2019-03-19T01:15:37.974Z,13.77
2019-03-19T01:18:41.896Z,19.80
2019-03-19T01:21:45.748Z,27.83
2019-03-19T01:24:49.583Z,21.40
2019-03-19T01:27:53.529Z,21.60
2019-03-19T01:30:57.357Z,23.30
2019-03-19T01:34:01.293Z,16.50
2019-03-19T01:37:05.224Z,21.07
2019-03-19T01:40:09.202Z,21.20
2019-03-19T01:43:13.037Z,20.13
2019-03-19T01:46:16.864Z,23.17
2019-03-19T01:49:20.725Z,16.33
2019-03-19T01:52:24.544Z,26.20
2019-03-19T01:55:28.457Z,23.67
2019-03-19T01:58:32.367Z,20.70
2019-03-19T02:01:36.211Z,19.77
2019-03-19T02:04:40.065Z,22.43
2019-03-19T02:07:43.888Z,22.17
2019-03-19T02:10:47.811Z,26.83
2019-03-19T02:13:51.640Z,25.80
2019-03-19T02:16:55.681Z,19.87
2019-03-19T02:19:59.504Z,24.07
2019-03-19T02:23:04.691Z,25.57
2019-03-19T02:26:16.365Z,19.87
2019-03-19T02:29:14.332Z,23.93
2019-03-19T02:32:18.171Z,35.47
2019-03-19T02:35:22.090Z,16.30
2019-03-19T02:38:26.011Z,23.83
2019-03-19T02:41:29.871Z,25.47
2019-03-19T02:44:33.776Z,16.20
2019-03-19T02:47:37.745Z,25.83
2019-03-19T02:50:41.650Z,23.97
2019-03-19T02:53:45.491Z,15.53
2019-03-19T02:56:49.314Z,22.67
2019-03-19T02:59:53.167Z,19.57
2019-03-19T03:02:57.215Z,19.57
2019-03-19T03:06:01.210Z,22.63
2019-03-19T03:09:07.011Z,24.23
2019-03-19T03:12:10.837Z,25.67
2019-03-19T03:15:14.822Z,24.27
2019-03-19T03:18:18.832Z,28.73
2019-03-19T03:21:22.802Z,17.13
2019-03-19T03:24:26.652Z,19.47
2019-03-19T03:27:30.475Z,27.40
2019-03-19T03:30:34.392Z,21.43
2019-03-19T03:33:38.221Z,29.27
2019-03-19T03:36:42.056Z,15.73
2019-03-19T03:39:45.894Z,23.83
2019-03-19T03:42:49.902Z,27.37
2019-03-19T03:45:53.751Z,23.00
2019-03-19T03:48:57.623Z,20.83
2019-03-19T03:52:01.463Z,17.83
2019-03-19T03:55:05.602Z,28.17
2019-03-19T03:58:09.459Z,24.30
2019-03-19T04:01:13.406Z,17.67
2019-03-19T04:04:17.340Z,23.83
2019-03-19T04:07:21.237Z,16.70
2019-03-19T04:10:25.062Z,28.40
2019-03-19T04:13:28.951Z,24.67
2019-03-19T04:16:32.952Z,26.50
2019-03-19T04:19:36.880Z,18.63
2019-03-19T04:22:40.821Z,24.60
2019-03-19T04:25:44.806Z,22.03
2019-03-19T04:28:51.942Z,14.67
2019-03-19T04:31:55.896Z,21.23
2019-03-19T04:34:59.705Z,27.00
2019-03-19T04:38:03.611Z,26.67
2019-03-19T04:41:07.432Z,23.80
2019-03-19T04:44:11.296Z,21.57
2019-03-19T04:47:15.110Z,32.67
2019-03-19T04:50:19.090Z,24.57
2019-03-19T04:53:24.263Z,26.83
2019-03-19T04:56:28.290Z,18.53
2019-03-19T04:59:32.204Z,14.20
2019-03-19T05:02:36.018Z,23.03
2019-03-19T05:05:39.834Z,26.00
2019-03-19T05:08:43.641Z,23.87
2019-03-19T05:11:47.461Z,22.17
2019-03-19T05:14:51.275Z,20.57
2019-03-19T05:17:55.083Z,38.73
2019-03-19T05:20:58.925Z,29.93
2019-03-19T05:24:02.735Z,25.53
2019-03-19T05:27:06.533Z,23.53
2019-03-19T05:30:11.515Z,26.13
2019-03-19T05:33:15.305Z,22.87
2019-03-19T05:36:19.146Z,22.07
2019-03-19T05:39:23.023Z,21.53
2019-03-19T05:42:26.846Z,21.40
2019-03-19T05:45:30.662Z,23.77
2019-03-19T05:48:34.523Z,13.67
2019-03-19T05:51:38.332Z,24.17
2019-03-19T05:54:42.268Z,23.20
2019-03-19T05:57:49.982Z,23.30
2019-03-19T06:00:51.792Z,26.00
2019-03-19T06:03:55.577Z,27.00
2019-03-19T06:06:59.379Z,26.53
2019-03-19T06:10:03.198Z,23.53
2019-03-19T06:13:07.021Z,34.73
2019-03-19T06:16:10.826Z,23.90
2019-03-19T06:19:14.676Z,21.03
2019-03-19T06:22:18.493Z,33.90
2019-03-19T06:25:22.314Z,19.80
2019-03-19T06:28:26.115Z,27.97
2019-03-19T06:31:30.059Z,22.57
2019-03-19T06:34:33.889Z,33.33
2019-03-19T06:37:37.764Z,31.07
2019-03-19T06:40:41.605Z,25.27
2019-03-19T06:43:45.439Z,25.27
2019-03-19T06:46:49.350Z,22.50
2019-03-19T06:49:53.160Z,26.73
2019-03-19T06:52:57.030Z,21.43
2019-03-19T06:56:00.802Z,26.53
2019-03-19T06:59:04.844Z,18.33
2019-03-19T07:02:08.657Z,26.23
2019-03-19T07:05:12.671Z,16.53
2019-03-19T07:08:16.561Z,18.93
2019-03-19T07:11:20.422Z,16.90
2019-03-19T07:14:24.282Z,17.07
2019-03-19T07:17:28.170Z,21.13
2019-03-19T07:20:32.180Z,20.90
2019-03-19T07:23:35.991Z,23.03
2019-03-19T07:26:39.821Z,20.13
2019-03-19T07:29:43.627Z,17.97
2019-03-19T07:32:47.579Z,22.77
2019-03-19T07:35:51.396Z,17.57
2019-03-19T07:38:55.225Z,19.80
2019-03-19T07:41:59.052Z,19.50
2019-03-19T07:45:02.894Z,18.57
2019-03-19T07:48:06.764Z,23.40
2019-03-19T07:51:10.587Z,16.83
2019-03-19T07:54:14.489Z,13.77
2019-03-19T07:57:18.372Z,18.83
2019-03-19T08:00:22.362Z,19.37
2019-03-19T08:03:26.182Z,17.23
2019-03-19T08:06:30.007Z,16.30
2019-03-19T08:09:33.893Z,20.33
2019-03-19T08:12:37.704Z,11.67
2019-03-19T08:15:41.533Z,20.47
2019-03-19T08:18:45.353Z,16.47
2019-03-19T08:21:49.253Z,17.10
2019-03-19T08:24:53.096Z,17.73
2019-03-19T08:27:57.044Z,12.07
2019-03-19T08:31:00.883Z,14.20
2019-03-19T08:34:04.841Z,13.93
2019-03-19T08:37:08.652Z,13.17
2019-03-19T08:40:13.300Z,12.70
2019-03-19T08:43:17.093Z,20.27
2019-03-19T08:46:20.982Z,15.20
2019-03-19T08:49:24.855Z,11.57
2019-03-19T08:52:28.680Z,14.20
2019-03-19T08:55:32.507Z,8.43
2019-03-19T08:58:36.315Z,10.50
2019-03-19T09:01:40.127Z,12.43
2019-03-19T09:04:43.952Z,22.97
2019-03-19T09:07:47.742Z,12.07
2019-03-19T09:10:51.548Z,11.07
2019-03-19T09:13:55.368Z,12.23
2019-03-19T09:16:59.188Z,11.93
2019-03-19T09:20:03.204Z,15.83
2019-03-19T09:23:07.054Z,12.20
2019-03-19T09:26:10.844Z,7.33
2019-03-19T09:29:17.210Z,6.73
2019-03-19T09:32:20.202Z,10.60
2019-03-19T09:35:26.115Z,8.67
2019-03-19T09:38:29.711Z,9.13
2019-03-19T09:41:33.510Z,5.57
2019-03-19T09:44:37.316Z,11.73
2019-03-19T09:47:41.233Z,8.10
2019-03-19T09:50:45.035Z,17.33
2019-03-19T09:53:48.887Z,10.57
2019-03-19T09:56:52.685Z,7.97
2019-03-19T09:59:56.503Z,11.30
2019-03-19T10:03:00.331Z,12.00
2019-03-19T10:06:13.943Z,7.30
2019-03-19T10:09:09.952Z,9.20
2019-03-19T10:12:13.764Z,6.37
2019-03-19T10:15:17.933Z,8.57
2019-03-19T10:18:21.735Z,8.87
2019-03-19T10:21:25.568Z,7.20
2019-03-19T10:24:29.380Z,7.07
2019-03-19T10:27:33.217Z,10.87
2019-03-19T10:30:37.029Z,7.50
2019-03-19T10:33:40.820Z,8.13
2019-03-19T10:36:44.712Z,8.43
2019-03-19T10:39:48.513Z,10.50
2019-03-19T10:42:52.315Z,7.67
2019-03-19T10:45:56.139Z,7.70
2019-03-19T10:48:59.944Z,7.43
2019-03-19T10:52:03.830Z,10.50
2019-03-19T10:55:07.923Z,11.30
2019-03-19T10:58:11.801Z,7.53
2019-03-19T11:01:15.797Z,9.50
2019-03-19T11:04:19.683Z,11.27
2019-03-19T11:07:23.593Z,11.70
2019-03-19T11:10:27.479Z,4.63
2019-03-19T11:13:31.271Z,4.57
2019-03-19T11:16:35.170Z,6.63
2019-03-19T11:19:39.042Z,8.27
2019-03-19T11:22:42.982Z,8.80
2019-03-19T11:25:54.470Z,4.17
2019-03-19T11:28:52.318Z,10.57
2019-03-19T11:31:56.143Z,8.87
2019-03-19T11:35:00.046Z,5.30
2019-03-19T11:38:04.121Z,4.43
2019-03-19T11:41:07.929Z,8.03
2019-03-19T11:44:11.739Z,4.37
2019-03-19T11:47:15.640Z,7.93
2019-03-19T11:50:21.141Z,8.00
2019-03-19T11:53:24.992Z,19.13
2019-03-19T11:56:28.898Z,9.27
2019-03-19T11:59:32.711Z,11.47
2019-03-19T12:02:36.682Z,7.80
2019-03-19T12:05:40.590Z,9.67
2019-03-19T12:08:44.390Z,7.50
2019-03-19T12:11:48.222Z,6.77
2019-03-19T12:14:52.035Z,6.90
2019-03-19T12:17:55.913Z,8.13
2019-03-19T12:20:59.745Z,5.10
2019-03-19T12:24:03.575Z,5.80
2019-03-19T12:27:07.542Z,7.30
2019-03-19T12:30:21.706Z,7.40
2019-03-19T12:33:17.739Z,6.73
2019-03-19T12:36:21.524Z,8.23
2019-03-19T12:39:25.402Z,6.27
2019-03-19T12:42:29.250Z,9.50
2019-03-19T12:45:33.224Z,8.97
2019-03-19T12:48:37.134Z,11.63
2019-03-19T12:51:40.958Z,9.30
2019-03-19T12:54:44.833Z,8.33
2019-03-19T12:57:48.758Z,11.03
2019-03-19T13:00:53.502Z,10.80
2019-03-19T13:03:57.313Z,9.60
2019-03-19T13:07:01.142Z,19.17
2019-03-19T13:10:06.609Z,6.83
2019-03-19T13:13:10.419Z,9.87
2019-03-19T13:16:14.333Z,11.67
2019-03-19T13:19:18.116Z,11.03
2019-03-19T13:22:21.928Z,8.93
2019-03-19T13:25:25.991Z,18.33
2019-03-19T13:28:29.766Z,21.13
2019-03-19T13:31:33.582Z,15.70
2019-03-19T13:34:37.392Z,8.60
2019-03-19T13:37:41.207Z,12.07
2019-03-19T13:40:45.048Z,7.03
2019-03-19T13:43:48.883Z,11.80
2019-03-19T13:46:52.708Z,9.77
2019-03-19T13:49:56.550Z,6.00
2019-03-19T13:53:00.439Z,6.27
2019-03-19T13:56:04.271Z,5.80
2019-03-19T13:59:08.071Z,9.30
2019-03-19T14:02:11.961Z,5.50
2019-03-19T14:05:15.939Z,10.47
2019-03-19T14:08:19.781Z,8.47
2019-03-19T14:11:23.584Z,6.83
2019-03-19T14:14:27.393Z,5.83
2019-03-19T14:17:31.249Z,3.70
2019-03-19T14:20:35.099Z,10.37
2019-03-19T14:23:38.961Z,8.10
2019-03-19T14:26:42.760Z,6.37
2019-03-19T14:29:46.681Z,7.13
2019-03-19T14:32:50.600Z,7.60
2019-03-19T14:35:54.454Z,5.17
2019-03-19T14:38:58.285Z,5.30
2019-03-19T14:42:02.157Z,5.20
2019-03-19T14:45:06.598Z,10.97
2019-03-19T14:48:10.502Z,7.83
2019-03-19T14:51:14.377Z,5.87
2019-03-19T14:54:18.193Z,8.90
2019-03-19T14:57:22.077Z,7.57
2019-03-19T15:00:25.883Z,9.60
2019-03-19T15:03:29.715Z,8.63
2019-03-19T15:06:33.616Z,6.50
2019-03-19T15:09:37.425Z,9.37
2019-03-19T15:12:41.327Z,12.20
2019-03-19T15:15:45.233Z,5.23
2019-03-19T15:18:49.070Z,5.47
2019-03-19T15:21:52.876Z,8.63
2019-03-19T15:24:56.706Z,7.77
2019-03-19T15:28:00.508Z,5.57
2019-03-19T15:31:04.410Z,6.23
2019-03-19T15:34:08.235Z,10.50
2019-03-19T15:37:12.139Z,6.53
2019-03-19T15:40:15.931Z,10.67
2019-03-19T15:43:19.751Z,8.40
2019-03-19T15:46:23.570Z,7.83
2019-03-19T15:49:37.646Z,7.07
2019-03-19T15:52:32.892Z,9.63
2019-03-19T15:55:36.787Z,8.50
2019-03-19T15:58:40.608Z,13.23
2019-03-19T16:01:44.423Z,9.00
2019-03-19T16:04:48.236Z,7.63
2019-03-19T16:07:52.047Z,8.27
2019-03-19T16:10:55.859Z,9.00
2019-03-19T16:13:59.685Z,7.00
2019-03-19T16:17:03.570Z,9.60
2019-03-19T16:20:10.322Z,9.33
2019-03-19T16:23:14.157Z,9.90
2019-03-19T16:26:17.971Z,13.37
2019-03-19T16:29:21.788Z,8.77
2019-03-19T16:32:25.683Z,9.20
2019-03-19T16:35:29.535Z,10.83
2019-03-19T16:38:33.733Z,8.10
2019-03-19T16:41:37.726Z,20.60
2019-03-19T16:44:41.614Z,5.50
2019-03-19T16:47:45.471Z,11.17
2019-03-19T16:50:49.275Z,12.50
2019-03-19T16:53:53.111Z,12.77
2019-03-19T16:56:56.999Z,11.37
2019-03-19T17:00:00.816Z,10.37
2019-03-19T17:03:04.766Z,10.03
2019-03-19T17:06:08.618Z,16.27
2019-03-19T17:09:12.408Z,12.27
2019-03-19T17:12:16.219Z,16.30
2019-03-19T17:15:20.206Z,16.60
2019-03-19T17:18:24.027Z,12.03
2019-03-19T17:21:27.907Z,18.93
2019-03-19T17:24:31.718Z,29.43
2019-03-19T17:27:35.523Z,15.30
2019-03-19T17:30:39.461Z,22.90
2019-03-19T17:33:43.263Z,26.53
2019-03-19T17:36:47.096Z,24.40
2019-03-19T17:39:50.909Z,27.10
2019-03-19T17:42:54.786Z,35.17
2019-03-19T17:45:58.700Z,40.87
2019-03-19T17:49:02.503Z,30.63
2019-03-19T17:52:06.424Z,28.63
2019-03-19T17:55:10.834Z,14.47
2019-03-19T17:58:14.644Z,8.27
2019-03-19T18:01:18.505Z,9.40
2019-03-19T18:04:22.286Z,9.50
2019-03-19T18:07:26.168Z,9.97
2019-03-19T18:10:30.071Z,8.80
2019-03-19T18:13:33.964Z,13.43
2019-03-19T18:16:37.788Z,10.73
2019-03-19T18:19:41.599Z,10.10
2019-03-19T18:22:45.549Z,15.73
2019-03-19T18:25:49.368Z,12.73
2019-03-19T18:28:53.176Z,13.93
2019-03-19T18:31:57.050Z,12.27
2019-03-19T18:35:00.852Z,11.77
2019-03-19T18:38:04.810Z,12.70
2019-03-19T18:41:08.642Z,26.07
2019-03-19T18:44:12.477Z,19.97
2019-03-19T18:47:16.307Z,13.10
2019-03-19T18:50:20.336Z,9.37
2019-03-19T18:53:24.125Z,13.80
2019-03-19T18:56:27.934Z,14.30
2019-03-19T18:59:31.761Z,12.53
2019-03-19T19:02:35.584Z,79.00
2019-03-19T19:05:39.461Z,24.23
2019-03-19T19:08:43.287Z,41.60
2019-03-19T19:11:47.089Z,28.67
2019-03-19T19:14:50.890Z,18.97
2019-03-19T19:17:54.758Z,12.53
2019-03-19T19:20:58.556Z,10.77
2019-03-19T19:24:02.373Z,14.73
2019-03-19T19:27:06.281Z,29.40
2019-03-19T19:30:12.849Z,15.07
2019-03-19T19:33:16.709Z,24.43
2019-03-19T19:36:20.521Z,100.20
2019-03-19T19:39:24.355Z,117.90
2019-03-19T19:42:28.172Z,55.87
2019-03-19T19:45:31.958Z,19.87
2019-03-19T19:48:35.784Z,19.07
2019-03-19T19:51:39.659Z,18.20
2019-03-19T19:54:43.455Z,20.17
2019-03-19T19:57:47.690Z,13.07
2019-03-19T20:00:51.583Z,14.97
2019-03-19T20:03:55.413Z,10.53
2019-03-19T20:06:59.200Z,9.30
2019-03-19T20:10:03.073Z,8.27
2019-03-19T20:13:06.975Z,18.63
2019-03-19T20:16:10.782Z,22.60
2019-03-19T20:19:14.592Z,29.73
2019-03-19T20:22:18.401Z,19.97
2019-03-19T20:25:22.283Z,18.90
2019-03-19T20:28:26.155Z,17.53
2019-03-19T20:31:30.011Z,15.63
2019-03-19T20:34:33.815Z,21.13
2019-03-19T20:37:40.061Z,17.57
2019-03-19T20:40:43.162Z,8.97
2019-03-19T20:43:47.039Z,8.70
2019-03-19T20:46:50.865Z,9.30
2019-03-19T20:49:54.683Z,13.83
2019-03-19T20:52:58.686Z,11.03
2019-03-19T20:56:02.584Z,9.60
2019-03-19T20:59:06.440Z,9.60
2019-03-19T21:02:10.229Z,8.07
2019-03-19T21:05:14.319Z,13.60
2019-03-19T21:08:18.127Z,9.17
2019-03-19T21:11:22.042Z,14.27
2019-03-19T21:14:25.844Z,10.20
2019-03-19T21:17:29.643Z,11.40
2019-03-19T21:20:33.440Z,12.27
2019-03-19T21:23:38.344Z,15.70
2019-03-19T21:26:42.257Z,9.60
2019-03-19T21:29:46.276Z,12.03
2019-03-19T21:32:50.685Z,13.53
2019-03-19T21:35:54.957Z,7.53
2019-03-19T21:38:59.095Z,11.10
2019-03-19T21:42:03.087Z,10.90
2019-03-19T21:45:07.893Z,10.87
2019-03-19T21:48:11.976Z,11.37
2019-03-19T21:51:16.518Z,11.50
2019-03-19T21:54:20.548Z,8.47
2019-03-19T21:57:24.751Z,7.70
2019-03-19T22:00:28.870Z,7.93
2019-03-19T22:03:32.772Z,8.13
2019-03-19T22:06:36.613Z,5.80
2019-03-19T22:09:40.443Z,10.33
2019-03-19T22:12:44.359Z,21.07
2019-03-19T22:15:48.126Z,17.70
2019-03-19T22:18:51.944Z,14.23
2019-03-19T22:21:55.782Z,12.37
2019-03-19T22:24:59.613Z,7.87
2019-03-19T22:28:03.582Z,8.57
2019-03-19T22:31:07.452Z,8.37
2019-03-19T22:34:14.316Z,12.87
2019-03-19T22:37:16.887Z,6.63
2019-03-19T22:40:20.791Z,12.40
2019-03-19T22:43:25.985Z,4.67
2019-03-19T22:46:29.897Z,7.90
2019-03-19T22:49:33.776Z,11.20
2019-03-19T22:52:37.613Z,7.30
2019-03-19T22:55:41.463Z,11.07
2019-03-19T22:58:45.305Z,10.00
2019-03-19T23:01:49.146Z,8.27
2019-03-19T23:04:53.053Z,8.53
2019-03-19T23:07:56.945Z,11.07
2019-03-19T23:11:00.748Z,11.67
2019-03-19T23:14:04.727Z,13.87
2019-03-19T23:17:08.633Z,10.03
2019-03-19T23:20:12.681Z,15.10
2019-03-19T23:23:16.531Z,11.60
2019-03-19T23:26:20.366Z,15.77
2019-03-19T23:29:24.269Z,14.20
2019-03-19T23:32:28.193Z,10.87
2019-03-19T23:35:32.027Z,7.27
2019-03-19T23:38:35.848Z,10.30
2019-03-19T23:41:39.681Z,11.80
2019-03-19T23:44:43.506Z,12.30
2019-03-19T23:47:47.475Z,9.10
2019-03-19T23:50:51.302Z,9.03
2019-03-19T23:53:55.182Z,11.17
2019-03-19T23:56:59.095Z,6.20
